Time;durP1;ratioP1;P1;durP2;ratioP2;P2;SDS_P1;SDS_P2;PMS_P1;PMS_P2;Temp;Humidity;BMP_temperature;BMP_pressure;BME280_temperature;BME280_humidity;BME280_pressure;Samples;Min_cycle;Max_cycle;Signal;HPM_P1;HPM_P2
2022/08/18 00:01:08;;;;;;;;;15.50;15.50;;;;;22.44;67.51;100856.75;5111324;27;45409;-61
2022/08/18 00:03:34;;;;;;;;;14.25;14.25;;;;;22.43;67.19;100857.72;5092104;27;45470;-62
2022/08/18 00:05:59;;;;;;;;;15.00;12.00;;;;;22.45;67.24;100863.06;5107403;27;46731;-61
2022/08/18 00:08:26;;;;;;;;;14.50;13.75;;;;;22.43;67.27;100854.16;5110330;27;46255;-61
2022/08/18 00:10:51;;;;;;;;;12.50;11.25;;;;;22.43;67.52;100863.16;5108875;27;46942;-62
2022/08/18 00:13:17;;;;;;;;;14.25;12.75;;;;;22.40;67.37;100855.25;5108607;27;45357;-61
2022/08/18 00:15:42;;;;;;;;;11.75;11.25;;;;;22.41;67.23;100858.88;5104992;27;48854;-61
2022/08/18 00:18:07;;;;;;;;;14.00;13.00;;;;;22.37;66.87;100856.38;5112611;27;46134;-61
2022/08/18 00:20:33;;;;;;;;;12.50;12.50;;;;;22.39;66.72;100857.13;5106098;27;50611;-62
2022/08/18 00:22:58;;;;;;;;;17.00;16.00;;;;;22.34;67.32;100847.63;5110372;27;46926;-61
2022/08/18 00:25:24;;;;;;;;;15.50;13.00;;;;;22.37;67.01;100847.38;5109114;27;45499;-61
2022/08/18 00:27:49;;;;;;;;;16.50;14.00;;;;;22.36;67.28;100856.50;5113568;27;45481;-61
2022/08/18 00:30:18;;;;;;;;;17.75;15.00;;;;;22.33;67.27;100849.44;5115742;27;47516;-61
2022/08/18 00:32:48;;;;;;;;;14.75;12.75;;;;;22.31;67.38;100848.72;5106094;27;45185;-61
2022/08/18 00:35:20;;;;;;;;;15.25;13.00;;;;;22.33;67.68;100859.47;5112832;27;45661;-61
2022/08/18 00:37:47;;;;;;;;;14.50;14.50;;;;;22.31;67.69;100847.84;5110463;27;46419;-61
2022/08/18 00:40:17;;;;;;;;;13.00;13.00;;;;;22.29;67.50;100850.69;5111291;27;45693;-61
2022/08/18 00:42:50;;;;;;;;;15.25;14.00;;;;;22.27;67.65;100851.75;5111402;27;45291;-61
2022/08/18 00:45:20;;;;;;;;;13.00;12.00;;;;;22.25;67.45;100851.03;5111993;27;45432;-62
2022/08/18 00:47:45;;;;;;;;;12.00;12.00;;;;;22.24;67.24;100855.59;5111820;27;45500;-61
2022/08/18 00:50:20;;;;;;;;;15.25;12.50;;;;;22.23;67.45;100861.16;5111220;27;45484;-61
2022/08/18 00:52:52;;;;;;;;;17.50;16.25;;;;;22.21;67.08;100862.13;5110676;27;45229;-61
2022/08/18 00:55:20;;;;;;;;;11.75;11.00;;;;;22.19;67.47;100864.13;5111435;27;45685;-61
2022/08/18 00:57:49;;;;;;;;;16.00;13.75;;;;;22.17;67.36;100868.81;5114920;27;46035;-61
2022/08/18 01:00:15;;;;;;;;;12.50;12.50;;;;;22.16;67.53;100863.50;5113051;27;45424;-62
2022/08/18 01:02:48;;;;;;;;;14.50;14.00;;;;;22.18;67.53;100870.53;5106391;27;45698;-61
2022/08/18 01:05:20;;;;;;;;;14.25;14.25;;;;;22.19;67.44;100865.97;5111032;27;45466;-62
2022/08/18 01:07:47;;;;;;;;;18.00;16.75;;;;;22.19;67.27;100872.28;5107492;27;46718;-61
2022/08/18 01:10:15;;;;;;;;;17.00;15.50;;;;;22.13;67.64;100861.03;5114778;27;45773;-62
2022/08/18 01:12:46;;;;;;;;;13.25;11.50;;;;;22.12;67.36;100868.31;5115785;27;45522;-62
2022/08/18 01:15:13;;;;;;;;;12.25;12.25;;;;;22.10;67.28;100862.16;5109912;27;45420;-61
2022/08/18 01:23:20;;;;;;;;;13.00;13.00;;;;;22.06;67.18;100848.91;5113776;27;45329;-61
2022/08/18 01:26:00;;;;;;;;;14.75;12.50;;;;;22.02;67.96;100845.56;5103688;27;46692;-62
2022/08/18 01:28:33;;;;;;;;;17.00;13.25;;;;;22.03;67.94;100855.44;5096244;27;47133;-62
2022/08/18 01:31:01;;;;;;;;;19.00;14.00;;;;;22.00;67.49;100856.56;5108955;27;45479;-62
2022/08/18 01:33:35;;;;;;;;;13.50;13.50;;;;;21.99;67.42;100862.13;5111552;27;45511;-61
2022/08/18 01:36:18;;;;;;;;;12.25;12.00;;;;;21.97;67.57;100869.53;5116118;27;45438;-61
2022/08/18 01:38:46;;;;;;;;;15.25;15.00;;;;;21.93;67.55;100868.03;5111698;27;45206;-61
2022/08/18 01:41:12;;;;;;;;;10.75;10.75;;;;;21.91;67.16;100867.28;5110784;27;45623;-61
2022/08/18 01:43:38;;;;;;;;;10.75;10.00;;;;;21.92;67.31;100869.00;5109061;27;45452;-61
2022/08/18 01:46:05;;;;;;;;;13.75;12.25;;;;;21.91;67.36;100870.00;5112287;27;45655;-61
2022/08/18 01:48:33;;;;;;;;;10.00;8.50;;;;;21.91;67.33;100875.44;5110546;27;45450;-61
2022/08/18 01:51:08;;;;;;;;;7.75;7.75;;;;;21.89;67.64;100870.13;5111012;27;45507;-61
2022/08/18 01:53:35;;;;;;;;;13.00;11.25;;;;;21.87;67.47;100872.09;5112478;27;45432;-61
2022/08/18 01:56:04;;;;;;;;;9.00;9.00;;;;;21.86;67.73;100870.34;5112012;27;45412;-61
2022/08/18 01:58:29;;;;;;;;;14.75;11.25;;;;;21.82;67.94;100872.47;5110332;27;46894;-61
2022/08/18 02:00:57;;;;;;;;;13.50;13.50;;;;;21.83;67.71;100870.59;5111792;27;45561;-61
2022/08/18 02:03:28;;;;;;;;;12.75;11.25;;;;;21.85;68.13;100871.34;5114440;27;47004;-62
2022/08/18 02:05:59;;;;;;;;;13.50;12.25;;;;;21.84;67.53;100875.91;5109467;27;45477;-61
2022/08/18 02:08:25;;;;;;;;;12.25;11.75;;;;;21.75;67.44;100863.06;5116286;27;47551;-61
2022/08/18 02:10:51;;;;;;;;;12.50;11.75;;;;;21.82;67.94;100874.31;5111684;27;45550;-61
2022/08/18 02:13:17;;;;;;;;;10.75;10.25;;;;;21.81;68.27;100872.56;5111102;27;46589;-61
2022/08/18 02:15:42;;;;;;;;;11.50;11.00;;;;;21.77;67.94;100868.38;5103486;27;45443;-62
2022/08/18 02:18:16;;;;;;;;;11.50;10.50;;;;;21.74;68.32;100864.03;5107619;27;46654;-61
2022/08/18 02:20:42;;;;;;;;;12.00;10.75;;;;;21.76;68.08;100861.19;5113027;27;45460;-62
2022/08/18 02:23:09;;;;;;;;;9.75;9.50;;;;;21.79;67.61;100875.41;5110782;27;45678;-61
2022/08/18 02:25:34;;;;;;;;;6.25;6.25;;;;;21.78;68.12;100878.25;5110304;27;45442;-61
2022/08/18 02:27:59;;;;;;;;;11.25;11.25;;;;;21.75;68.04;100879.38;5110246;27;45496;-61
2022/08/18 02:30:25;;;;;;;;;11.00;9.75;;;;;21.77;67.86;100882.81;5107299;27;45892;-61
2022/08/18 02:32:50;;;;;;;;;15.00;11.75;;;;;21.76;68.38;100874.78;5112882;27;45434;-61
2022/08/18 02:35:15;;;;;;;;;17.00;16.25;;;;;21.74;67.53;100872.19;5108454;27;46002;-61
2022/08/18 02:37:42;;;;;;;;;15.50;14.25;;;;;21.78;67.47;100883.66;5111329;27;45987;-61
2022/08/18 02:40:08;;;;;;;;;13.50;12.00;;;;;21.75;67.85;100882.06;5115520;27;45230;-61
2022/08/18 02:42:34;;;;;;;;;14.75;13.50;;;;;21.74;67.41;100877.63;5104410;27;46136;-62
2022/08/18 02:44:59;;;;;;;;;14.50;12.75;;;;;21.73;67.49;100875.88;5107155;27;45472;-61
2022/08/18 02:47:25;;;;;;;;;12.75;12.75;;;;;21.75;67.44;100870.31;5114363;27;45373;-61
2022/08/18 02:49:50;;;;;;;;;13.00;11.00;;;;;21.74;67.19;100869.47;5103142;27;45318;-61
2022/08/18 02:52:16;;;;;;;;;14.50;13.25;;;;;21.73;66.90;100873.16;5106750;27;45495;-61
2022/08/18 02:54:41;;;;;;;;;11.50;11.50;;;;;21.72;66.75;100873.28;5095636;27;45662;-61
2022/08/18 02:57:09;;;;;;;;;16.75;15.25;;;;;21.70;66.63;100865.28;5109190;27;45560;-61
2022/08/18 02:59:38;;;;;;;;;12.75;12.75;;;;;21.69;67.01;100866.25;5113429;27;45560;-61
2022/08/18 03:02:06;;;;;;;;;14.00;13.50;;;;;21.69;66.46;100870.81;5110634;27;45418;-61
2022/08/18 03:04:32;;;;;;;;;10.25;10.25;;;;;21.67;66.37;100865.50;5112306;27;45824;-61
2022/08/18 03:07:01;;;;;;;;;14.75;14.75;;;;;21.64;66.43;100863.03;5106578;27;45549;-62
2022/08/18 03:09:28;;;;;;;;;10.25;10.25;;;;;21.66;66.64;100863.75;5104876;27;45488;-61
2022/08/18 03:11:54;;;;;;;;;9.25;9.00;;;;;21.67;66.36;100870.03;5115293;27;45314;-61
2022/08/18 03:14:19;;;;;;;;;12.00;12.00;;;;;21.63;66.30;100867.59;5109160;27;45338;-61
2022/08/18 03:16:47;;;;;;;;;13.00;11.75;;;;;21.65;65.97;100859.28;5113753;27;45322;-61
2022/08/18 03:19:16;;;;;;;;;12.75;11.50;;;;;21.64;66.56;100860.31;5109432;27;45540;-61
2022/08/18 03:21:44;;;;;;;;;13.25;12.25;;;;;21.61;66.01;100858.66;5108341;27;46923;-61
2022/08/18 03:24:11;;;;;;;;;13.50;13.50;;;;;21.61;65.86;100847.81;5114572;27;45224;-62
2022/08/18 03:26:41;;;;;;;;;13.75;12.00;;;;;21.62;65.92;100851.41;5106800;27;46130;-61
2022/08/18 03:29:08;;;;;;;;;13.75;12.25;;;;;21.60;66.38;100847.94;5110061;27;45444;-62
2022/08/18 03:31:37;;;;;;;;;13.25;12.00;;;;;21.61;65.92;100849.66;5109333;27;45424;-61
2022/08/18 03:34:04;;;;;;;;;12.75;12.75;;;;;21.59;66.34;100847.06;5109317;27;45430;-61
2022/08/18 03:36:31;;;;;;;;;13.75;12.75;;;;;21.57;66.04;100850.91;5111388;27;47146;-61
2022/08/18 03:38:57;;;;;;;;;13.25;13.25;;;;;21.59;66.39;100857.06;5111034;27;45483;-61
2022/08/18 03:41:25;;;;;;;;;13.75;13.75;;;;;21.59;66.45;100851.66;5104298;27;45401;-61
2022/08/18 03:43:51;;;;;;;;;12.75;11.50;;;;;21.53;66.17;100850.25;5113561;27;45790;-61
2022/08/18 03:46:19;;;;;;;;;11.75;11.75;;;;;21.54;65.70;100859.28;5109537;27;46639;-61
2022/08/18 03:48:46;;;;;;;;;14.50;14.50;;;;;21.49;65.80;100856.91;5107707;27;45461;-61
2022/08/18 03:51:25;;;;;;;;;16.25;14.25;;;;;21.50;66.49;100858.66;5113440;27;46706;-61
2022/08/18 03:53:53;;;;;;;;;12.25;12.25;;;;;21.49;66.56;100856.91;5115012;27;46113;-61
2022/08/18 03:56:23;;;;;;;;;13.50;13.50;;;;;21.52;66.59;100855.78;5112381;27;47039;-62
2022/08/18 03:58:53;;;;;;;;;16.00;14.50;;;;;21.46;66.72;100838.94;5108658;27;45425;-61
2022/08/18 04:01:22;;;;;;;;;12.25;12.25;;;;;21.54;66.51;100848.41;5109706;27;45472;-61
2022/08/18 04:03:52;;;;;;;;;11.75;10.50;;;;;21.54;65.95;100851.13;5114023;27;45493;-62
2022/08/18 04:06:21;;;;;;;;;16.00;12.50;;;;;21.53;66.41;100849.38;5108987;27;45845;-61
2022/08/18 04:08:50;;;;;;;;;12.50;12.50;;;;;21.54;66.35;100843.84;5113582;27;45483;-62
2022/08/18 04:11:16;;;;;;;;;16.75;13.75;;;;;21.48;66.20;100825.28;5115319;27;45728;-61
2022/08/18 04:13:42;;;;;;;;;12.75;12.75;;;;;21.50;66.50;100836.94;5110422;27;45484;-61
2022/08/18 04:16:08;;;;;;;;;12.50;10.75;;;;;21.51;66.37;100843.22;5120982;27;46124;-61
2022/08/18 04:18:33;;;;;;;;;14.00;13.75;;;;;21.49;66.51;100837.03;5110852;27;45510;-62
2022/08/18 04:21:12;;;;;;;;;13.25;11.50;;;;;21.48;66.13;100838.88;5110065;27;45321;-61
2022/08/18 04:23:39;;;;;;;;;14.00;14.00;;;;;21.49;66.02;100837.91;5111034;27;45742;-61
2022/08/18 04:26:06;;;;;;;;;11.75;11.50;;;;;21.51;65.67;100844.06;5115880;27;45460;-62
2022/08/18 04:28:33;;;;;;;;;16.75;16.25;;;;;21.49;66.51;100840.63;5114137;27;45380;-61
2022/08/18 04:31:04;;;;;;;;;11.50;10.75;;;;;21.50;66.45;100846.91;5110113;27;45377;-61
2022/08/18 04:33:29;;;;;;;;;14.25;13.75;;;;;21.49;66.48;100850.63;5110238;27;45534;-61
2022/08/18 04:35:54;;;;;;;;;11.00;10.50;;;;;21.44;65.76;100845.50;5108427;27;46138;-61
2022/08/18 04:38:21;;;;;;;;;11.75;10.00;;;;;21.40;66.56;100842.16;5108749;27;45602;-61
2022/08/18 04:40:46;;;;;;;;;15.25;13.50;;;;;21.44;65.83;100850.94;5113458;27;45755;-61
2022/08/18 04:43:14;;;;;;;;;12.00;10.25;;;;;21.43;65.72;100851.91;5113834;27;45532;-62
2022/08/18 04:45:44;;;;;;;;;11.50;11.50;;;;;21.41;65.52;100859.31;5116031;27;46349;-62
2022/08/18 04:48:11;;;;;;;;;10.25;9.50;;;;;21.38;66.08;100859.53;5109704;27;45327;-61
2022/08/18 04:50:37;;;;;;;;;11.00;10.75;;;;;21.38;66.03;100862.25;5114091;27;45587;-61
2022/08/18 04:55:50;;;;;;;;;13.00;11.50;;;;;21.34;66.07;100855.34;5113492;27;45499;-61
2022/08/18 04:58:17;;;;;;;;;11.50;11.50;;;;;21.29;65.86;100856.53;5108096;27;45600;-61
2022/08/18 05:00:46;;;;;;;;;10.50;9.50;;;;;21.29;66.14;100861.97;5112656;27;46760;-61
2022/08/18 05:03:11;;;;;;;;;13.00;13.00;;;;;21.27;66.22;100868.50;5114413;27;45527;-61
2022/08/18 05:05:37;;;;;;;;;8.50;8.50;;;;;21.26;66.13;100870.34;5108801;27;45381;-61
2022/08/18 05:08:02;;;;;;;;;13.00;12.25;;;;;21.26;65.91;100873.06;5110890;27;53171;-61
2022/08/18 05:10:28;;;;;;;;;10.25;10.25;;;;;21.27;65.80;100873.94;5115455;27;46138;-61
2022/08/18 05:12:54;;;;;;;;;9.25;8.75;;;;;21.26;66.01;100886.63;5115901;27;45506;-61
2022/08/18 05:15:19;;;;;;;;;12.25;12.00;;;;;21.25;66.40;100889.47;5115466;27;47159;-62
2022/08/18 05:17:45;;;;;;;;;10.00;10.00;;;;;21.23;66.07;100884.16;5111483;27;45533;-61
2022/08/18 05:20:10;;;;;;;;;10.00;10.00;;;;;21.22;66.54;100879.72;5109999;27;46930;-61
2022/08/18 05:22:42;;;;;;;;;10.50;10.50;;;;;21.22;66.10;100892.44;5112059;27;45455;-61
2022/08/18 05:25:09;;;;;;;;;13.00;11.00;;;;;21.19;65.94;100889.94;5107896;27;46086;-61
2022/08/18 05:27:37;;;;;;;;;13.00;10.50;;;;;21.14;66.11;100884.00;5114851;27;45473;-61
2022/08/18 05:30:04;;;;;;;;;11.25;10.25;;;;;21.19;66.12;100892.66;5110859;27;45482;-61
2022/08/18 05:32:42;;;;;;;;;14.00;14.00;;;;;21.18;66.69;100893.63;5108530;27;45447;-61
2022/08/18 05:35:15;;;;;;;;;14.00;12.25;;;;;21.17;66.87;100886.47;5111016;27;46075;-61
2022/08/18 05:37:53;;;;;;;;;15.50;15.50;;;;;21.17;66.64;100892.75;5111017;27;45541;-61
2022/08/18 05:40:23;;;;;;;;;15.50;15.50;;;;;21.19;66.73;100903.50;5097687;27;45497;-61
2022/08/18 05:42:48;;;;;;;;;17.25;15.25;;;;;21.18;67.19;100899.91;5106415;27;45603;-61
2022/08/18 05:45:16;;;;;;;;;16.25;16.00;;;;;21.19;67.44;100912.50;5108699;27;45385;-61
2022/08/18 05:47:42;;;;;;;;;15.75;14.25;;;;;21.20;67.17;100916.09;5112398;27;45518;-61
2022/08/18 05:50:11;;;;;;;;;18.00;15.00;;;;;21.21;67.42;100915.13;5112515;27;45580;-62
2022/08/18 05:52:53;;;;;;;;;17.00;15.75;;;;;21.22;66.78;100923.16;5113672;27;45617;-61
2022/08/18 05:58:28;;;;;;;;;11.50;10.75;;;;;21.13;66.29;100912.09;5107582;27;45614;-65
2022/08/18 06:00:59;;;;;;;;;18.75;15.25;;;;;21.18;66.47;100929.75;5112166;27;45595;-65
2022/08/18 06:03:49;;;;;;;;;15.25;15.25;;;;;21.22;66.96;100922.28;5108928;27;46635;-65
2022/08/18 06:06:21;;;;;;;;;14.00;13.00;;;;;21.15;66.66;100926.41;5113214;27;45709;-65
2022/08/18 06:09:02;;;;;;;;;17.25;15.25;;;;;21.23;66.78;100935.75;5116457;27;46104;-65
2022/08/18 06:11:27;;;;;;;;;12.00;11.00;;;;;21.25;66.89;100928.34;5101492;27;45400;-65
2022/08/18 06:13:52;;;;;;;;;14.25;13.25;;;;;21.18;66.45;100916.19;5117623;27;45582;-65
2022/08/18 06:16:24;;;;;;;;;12.25;11.25;;;;;21.21;66.42;100912.41;5118048;27;46293;-66
2022/08/18 06:19:02;;;;;;;;;13.75;13.75;;;;;21.25;66.56;100922.91;5122290;27;45155;-65
2022/08/18 06:21:45;;;;;;;;;11.50;10.00;;;;;21.31;66.79;100924.31;5121044;27;45473;-66
2022/08/18 06:24:29;;;;;;;;;12.00;11.00;;;;;21.32;65.94;100925.16;5121560;27;45230;-66
2022/08/18 06:27:12;;;;;;;;;14.00;13.50;;;;;21.32;66.30;100936.91;5122012;27;46207;-66
2022/08/18 06:30:04;;;;;;;;;14.00;14.00;;;;;21.36;66.01;100934.81;5087598;27;45488;-66
2022/08/18 06:32:45;;;;;;;;;17.25;14.50;;;;;21.32;66.16;100926.03;5118566;27;45329;-65
2022/08/18 06:35:13;;;;;;;;;15.50;15.00;;;;;21.42;66.58;100939.81;5122164;27;45491;-66
2022/08/18 06:40:29;;;;;;;;;20.25;17.75;;;;;21.38;66.77;100931.00;5121617;27;45213;-66
2022/08/18 06:42:54;;;;;;;;;17.50;16.75;;;;;21.46;66.42;100946.72;5112742;27;45308;-66
2022/08/18 06:45:29;;;;;;;;;18.00;18.00;;;;;21.48;67.16;100935.78;5116187;27;45378;-66
2022/08/18 06:48:04;;;;;;;;;18.75;16.75;;;;;21.45;66.13;100936.84;5095460;27;46314;-66
2022/08/18 06:50:39;;;;;;;;;19.75;17.50;;;;;21.42;67.10;100937.94;5121685;27;45541;-66
2022/08/18 06:53:06;;;;;;;;;21.00;20.00;;;;;21.43;67.20;100938.81;5121820;27;45172;-66
2022/08/18 06:55:47;;;;;;;;;30.25;29.00;;;;;21.49;66.67;100953.81;5121597;27;45296;-66
2022/08/18 06:58:15;;;;;;;;;28.75;27.50;;;;;21.49;66.61;100956.53;5117942;27;46760;-65
2022/08/18 07:00:49;;;;;;;;;30.75;29.00;;;;;21.49;66.84;100960.09;5112191;27;45230;-64
2022/08/18 07:03:34;;;;;;;;;36.75;33.00;;;;;21.44;67.10;100945.97;5117841;27;45523;-65
2022/08/18 07:06:04;;;;;;;;;34.75;30.00;;;;;21.47;67.49;100948.50;5120400;27;45383;-64
2022/08/18 07:08:35;;;;;;;;;33.75;31.00;;;;;21.53;67.42;100960.75;5099757;27;47522;-65
2022/08/18 07:11:16;;;;;;;;;39.75;34.75;;;;;21.56;66.52;100960.50;5121338;27;45152;-64
2022/08/18 07:13:43;;;;;;;;;35.50;32.00;;;;;21.56;66.44;100960.50;5109392;27;45471;-65
2022/08/18 07:16:23;;;;;;;;;41.00;33.75;;;;;21.58;66.99;100959.41;5100628;27;45458;-65
2022/08/18 07:18:50;;;;;;;;;39.75;35.00;;;;;21.55;66.60;100958.78;5114101;27;45586;-65
2022/08/18 07:21:33;;;;;;;;;41.25;35.75;;;;;21.53;67.09;100955.31;5105655;27;45763;-65
2022/08/18 07:24:03;;;;;;;;;40.50;36.25;;;;;21.59;66.68;100958.44;5119586;27;45403;-65
2022/08/18 07:26:29;;;;;;;;;41.75;34.25;;;;;21.59;66.99;100952.16;5107868;27;45315;-65
2022/08/18 07:29:10;;;;;;;;;44.25;33.75;;;;;21.55;66.19;100950.63;5086703;27;48222;-65
2022/08/18 07:31:51;;;;;;;;;38.00;33.25;;;;;21.62;66.96;100952.78;5108787;27;45444;-65
2022/08/18 07:34:27;;;;;;;;;39.75;35.50;;;;;21.59;66.69;100950.28;5117986;27;45456;-65
2022/08/18 07:37:30;;;;;;;;;39.75;35.50;;;;;21.69;66.13;100953.19;5119528;27;45354;-65
2022/08/18 07:40:03;;;;;;;;;40.75;33.50;;;;;21.68;66.26;100956.00;5038669;28;48323;-65
2022/08/18 07:42:43;;;;;;;;;36.75;32.75;;;;;21.77;66.49;100964.31;5111168;27;45739;-65
2022/08/18 07:45:21;;;;;;;;;36.25;32.00;;;;;21.73;66.91;100957.38;5101342;27;45421;-65
2022/08/18 07:48:00;;;;;;;;;42.75;33.50;;;;;21.79;66.33;100961.50;5119833;27;45586;-65
2022/08/18 07:50:27;;;;;;;;;43.75;37.00;;;;;21.88;66.51;100978.94;5118120;27;46108;-65
2022/08/18 07:53:42;;;;;;;;;30.75;30.25;;;;;21.91;66.48;100984.16;5120123;27;45346;-65
2022/08/18 07:56:29;;;;;;;;;35.25;31.25;;;;;21.95;66.49;100970.22;5111717;27;45412;-65
2022/08/18 07:59:39;;;;;;;;;35.00;31.25;;;;;21.98;66.06;100964.50;5089100;27;45473;-65
2022/08/18 08:02:14;;;;;;;;;37.75;33.25;;;;;22.11;65.98;100980.75;5106742;27;46211;-65
2022/08/18 08:04:58;;;;;;;;;35.00;31.50;;;;;22.16;65.97;100973.09;5120027;27;45376;-65
2022/08/18 08:07:30;;;;;;;;;38.00;32.00;;;;;22.20;65.49;100966.47;5100773;27;45638;-65
2022/08/18 08:10:17;;;;;;;;;43.00;33.50;;;;;22.26;66.00;100969.69;5119298;27;45374;-65
2022/08/18 08:13:02;;;;;;;;;36.25;31.75;;;;;22.30;65.37;100963.94;5108837;27;47577;-65
2022/08/18 08:15:56;;;;;;;;;30.00;28.75;;;;;22.36;65.02;100960.69;5106904;27;45597;-65
2022/08/18 08:18:37;;;;;;;;;33.25;31.25;;;;;22.36;65.50;100948.97;5101012;27;45712;-65
2022/08/18 08:21:29;;;;;;;;;44.00;37.50;;;;;22.44;64.65;100956.53;5119470;27;45451;-65
2022/08/18 08:24:12;;;;;;;;;36.25;32.50;;;;;22.44;64.79;100953.81;5100963;27;45512;-65
2022/08/18 08:26:49;;;;;;;;;38.00;33.00;;;;;22.48;65.02;100947.97;5105972;27;45343;-65
2022/08/18 08:29:39;;;;;;;;;27.75;27.75;;;;;22.54;64.50;100943.94;5119488;27;45389;-65
2022/08/18 08:32:09;;;;;;;;;30.00;29.00;;;;;22.58;64.41;100942.69;5119638;27;45481;-65
2022/08/18 08:34:56;;;;;;;;;28.00;27.25;;;;;22.58;65.36;100934.53;5121302;27;46289;-65
2022/08/18 08:37:51;;;;;;;;;33.50;30.50;;;;;22.69;64.36;100944.56;5121903;27;45291;-65
2022/08/18 08:40:26;;;;;;;;;31.50;31.00;;;;;22.73;64.21;100938.72;5098983;27;46459;-65
2022/08/18 08:43:02;;;;;;;;;34.50;29.75;;;;;22.75;65.12;100927.72;5109338;27;45523;-65
2022/08/18 08:45:38;;;;;;;;;26.50;26.50;;;;;22.80;65.13;100933.66;5122407;27;46181;-65
2022/08/18 08:48:16;;;;;;;;;32.00;30.25;;;;;22.65;64.01;100905.81;5122430;27;45710;-65
2022/08/18 08:50:52;;;;;;;;;29.50;27.50;;;;;22.88;63.41;100952.09;5122643;27;45324;-65
2022/08/18 08:53:40;;;;;;;;;28.50;28.25;;;;;22.93;63.51;100963.47;5121933;27;45403;-65
2022/08/18 08:56:15;;;;;;;;;33.00;30.50;;;;;22.97;64.28;100959.53;5093303;27;45901;-66
2022/08/18 08:58:59;;;;;;;;;31.75;29.00;;;;;23.01;63.72;100961.00;5116316;27;45475;-65
2022/08/18 09:02:01;;;;;;;;;34.50;30.50;;;;;23.07;63.51;100957.81;5120304;27;45232;-65
2022/08/18 09:04:36;;;;;;;;;30.00;29.00;;;;;23.11;62.53;100962.00;5115144;27;45491;-65
2022/08/18 09:07:19;;;;;;;;;24.50;23.25;;;;;23.15;61.95;100967.19;5118500;27;46172;-66
2022/08/18 09:10:06;;;;;;;;;27.75;26.25;;;;;23.18;62.04;100967.81;5116056;27;45521;-65
2022/08/18 09:12:41;;;;;;;;;28.00;28.00;;;;;23.21;62.37;100970.28;5114226;27;45454;-65
2022/08/18 09:15:18;;;;;;;;;29.50;27.50;;;;;23.24;62.59;100972.75;5121071;27;45252;-65
2022/08/18 09:18:11;;;;;;;;;27.00;26.25;;;;;23.28;62.37;100968.78;5119317;27;45299;-65
2022/08/18 09:20:48;;;;;;;;;24.50;24.00;;;;;23.33;62.67;100978.44;5119743;27;45645;-65
2022/08/18 09:23:21;;;;;;;;;27.25;26.75;;;;;23.34;61.91;100978.31;5119006;27;45744;-65
2022/08/18 09:25:57;;;;;;;;;25.75;25.75;;;;;23.37;61.68;100979.91;5121888;27;45459;-65
2022/08/18 09:28:28;;;;;;;;;26.75;25.50;;;;;23.43;61.70;100982.97;5115875;27;45289;-65
2022/08/18 09:31:05;;;;;;;;;33.50;28.50;;;;;23.49;62.53;100976.19;5098091;27;45585;-65
2022/08/18 09:34:09;;;;;;;;;26.00;24.00;;;;;23.54;62.70;100973.03;5120021;27;45498;-65
2022/08/18 09:36:53;;;;;;;;;32.25;28.50;;;;;23.58;60.52;100967.22;5107207;27;45575;-66
2022/08/18 09:42:16;;;;;;;;;25.25;24.25;;;;;23.64;61.18;100960.41;5115553;27;45601;-66
2022/08/18 09:44:47;;;;;;;;;22.25;22.25;;;;;23.69;60.21;100966.34;5121099;27;45299;-66
2022/08/18 09:47:33;;;;;;;;;24.50;24.50;;;;;23.66;60.54;100964.72;5115909;27;45557;-66
2022/08/18 09:50:26;;;;;;;;;19.50;19.50;;;;;23.75;59.68;100970.38;5082971;27;46331;-66
2022/08/18 09:52:52;;;;;;;;;23.25;23.25;;;;;23.80;60.49;100969.00;5114001;27;45478;-66
2022/08/18 09:55:17;;;;;;;;;25.75;23.50;;;;;23.83;59.53;100971.50;5106678;27;45414;-65
2022/08/18 09:57:45;;;;;;;;;20.67;20.00;;;;;23.86;58.55;100968.50;5116172;27;46271;-65
2022/08/18 10:00:14;;;;;;;;;26.00;25.00;;;;;23.88;58.16;100973.84;5119650;27;45800;-66
2022/08/18 10:02:40;;;;;;;;;19.50;18.50;;;;;23.93;58.40;100968.84;5115016;27;45259;-66
2022/08/18 10:05:14;;;;;;;;;18.75;17.00;;;;;23.98;58.45;100968.47;5119935;27;45614;-66
2022/08/18 10:07:47;;;;;;;;;20.75;19.50;;;;;24.03;58.99;100966.22;5118333;27;46014;-65
2022/08/18 10:10:21;;;;;;;;;21.50;21.50;;;;;24.09;58.44;100960.25;5119903;27;45376;-66
2022/08/18 10:13:00;;;;;;;;;23.50;21.00;;;;;24.12;58.11;100956.38;5121494;27;45592;-66
2022/08/18 10:15:38;;;;;;;;;25.50;25.25;;;;;24.13;58.27;100948.06;5113967;27;45462;-66
2022/08/18 10:18:29;;;;;;;;;19.50;19.00;;;;;24.19;58.90;100938.47;5115844;27;45497;-65
2022/08/18 10:21:17;;;;;;;;;21.25;20.25;;;;;24.26;58.70;100931.50;5115998;27;45595;-65
2022/08/18 10:24:01;;;;;;;;;23.50;19.50;;;;;24.34;58.30;100930.81;5118183;27;45612;-66
2022/08/18 10:26:29;;;;;;;;;18.50;18.25;;;;;24.43;57.63;100927.28;5120891;27;45456;-66
2022/08/18 10:29:04;;;;;;;;;19.25;17.75;;;;;24.45;57.05;100927.16;5120664;27;45367;-66
2022/08/18 10:31:50;;;;;;;;;20.75;17.75;;;;;24.47;56.42;100930.59;5101818;27;47071;-66
2022/08/18 10:34:37;;;;;;;;;18.75;18.75;;;;;24.49;56.27;100923.13;5116822;27;45551;-66
2022/08/18 10:37:12;;;;;;;;;17.00;15.00;;;;;24.53;56.60;100917.28;5119202;27;45387;-65
2022/08/18 10:39:38;;;;;;;;;16.50;14.75;;;;;24.56;56.45;100913.47;5100999;27;45547;-65
2022/08/18 10:42:32;;;;;;;;;18.75;17.50;;;;;24.56;57.04;100910.72;5115746;27;46152;-66
2022/08/18 10:45:10;;;;;;;;;16.75;16.00;;;;;24.63;57.17;100917.38;5107218;27;45360;-66
2022/08/18 10:47:36;;;;;;;;;15.00;15.00;;;;;24.66;56.23;100914.38;5104205;27;45500;-65
2022/08/18 10:50:05;;;;;;;;;17.25;16.25;;;;;24.70;55.61;100914.94;5113030;27;45604;-66
2022/08/18 10:52:37;;;;;;;;;14.75;14.75;;;;;24.72;55.66;100915.66;5112285;27;47628;-65
2022/08/18 10:55:29;;;;;;;;;19.25;17.75;;;;;24.77;56.61;100918.84;5114173;27;45520;-66
2022/08/18 10:58:15;;;;;;;;;16.75;16.50;;;;;24.81;55.69;100914.84;5106815;27;45417;-65
2022/08/18 11:00:53;;;;;;;;;17.75;16.50;;;;;24.87;54.69;100914.28;5111982;27;45349;-65
2022/08/18 11:03:58;;;;;;;;;23.00;19.50;;;;;24.87;54.42;100919.75;5115861;27;45393;-65
2022/08/18 11:06:24;;;;;;;;;18.00;17.00;;;;;24.83;54.65;100906.53;5114069;27;45710;-65
2022/08/18 11:08:54;;;;;;;;;19.50;16.50;;;;;24.90;54.54;100908.53;5117184;27;45451;-66
2022/08/18 11:11:22;;;;;;;;;19.50;17.75;;;;;24.86;55.19;100895.31;5114500;27;45594;-65
2022/08/18 11:14:41;;;;;;;;;15.75;14.00;;;;;24.97;53.39;100908.84;5120787;27;46370;-65
2022/08/18 11:17:33;;;;;;;;;13.25;12.75;;;;;24.99;53.64;100906.84;5057116;28;45319;-66
2022/08/18 11:20:00;;;;;;;;;11.25;11.25;;;;;24.99;53.38;100909.56;5101259;27;45423;-65
2022/08/18 11:22:30;;;;;;;;;12.25;10.00;;;;;25.00;52.95;100905.00;5109395;27;45485;-65
2022/08/18 11:24:56;;;;;;;;;15.00;13.00;;;;;25.02;52.72;100909.28;5119938;27;45520;-65
2022/08/18 11:27:28;;;;;;;;;13.25;12.00;;;;;25.06;53.77;100910.75;5120612;27;45508;-65
2022/08/18 11:29:57;;;;;;;;;11.25;11.25;;;;;25.17;54.15;100908.91;5119801;27;45463;-65
2022/08/18 11:32:31;;;;;;;;;11.75;11.75;;;;;25.26;53.12;100910.78;5099855;27;46502;-65
2022/08/18 11:35:13;;;;;;;;;13.25;13.25;;;;;25.24;53.47;100893.69;5101744;27;45453;-66
2022/08/18 11:37:38;;;;;;;;;13.00;13.00;;;;;25.36;52.04;100910.84;5104774;27;45357;-65
2022/08/18 11:40:19;;;;;;;;;12.25;11.00;;;;;25.38;52.95;100900.66;5119906;27;45492;-65
2022/08/18 11:43:00;;;;;;;;;10.75;10.75;;;;;25.41;52.21;100901.22;5103158;27;45514;-65
2022/08/18 11:45:31;;;;;;;;;10.75;10.50;;;;;25.43;51.36;100910.13;5088821;27;47190;-65
2022/08/18 11:48:27;;;;;;;;;11.75;11.75;;;;;25.43;51.93;100912.03;5110734;27;45691;-65
2022/08/18 11:50:55;;;;;;;;;13.25;11.75;;;;;25.46;52.84;100922.63;5106600;27;45422;-65
2022/08/18 11:53:41;;;;;;;;;12.50;11.50;;;;;25.54;51.55;100921.94;5109361;27;45420;-66